LFRD/DNR METAR and TAF weather

Enter ICAO airport designator
Station Type Date Time Source
LFRD METAR 2020/09/27 16:30 UTC NOAA

LFRD 271630Z AUTO 33018KT 9999 BKN028 BKN034 15/09 Q1014 TEMPO 34020G30KT


Station Type Date Time Source
LFRD Decoded METAR 2020/09/27 16:30 UTC NOAA

Dinard, France (LFRD) 48-35N 002-04W 60M
Sep 27, 2020 - 12:30 PM EDT / 2020.09.27 1630 UTC
Wind: from the NNW (330 degrees) at 21 MPH (18 KT):0
Visibility: greater than 7 mile(s):0
Sky conditions: mostly cloudy
Temperature: 59 F (15 C)
Dew Point: 48 F (9 C)
Relative Humidity: 67%
Pressure (altimeter): 29.94 in. Hg (1014 hPa)
ob: LFRD 271630Z AUTO 33018KT 9999 BKN028 BKN034 15/09 Q1014 TEMPO 34020G30KT
cycle: 16

Station Type Date Time Source
LFRD TAF 2020/09/27 12:21 UTC NOAA

TAF LFRD 271100Z 2712/2812 34020G30KT 9999 BKN025
TEMPO 2712/2715 24023G35KT
BECMG 2718/2720 34010KT

Example: see airport list